Time;durP1;ratioP1;P1;durP2;ratioP2;P2;SDS_P1;SDS_P2;PMS_P1;PMS_P2;Temp;Humidity;BMP_temperature;BMP_pressure;BME280_temperature;BME280_humidity;BME280_pressure;Samples;Min_cycle;Max_cycle;Signal;HPM_P1;HPM_P2
2022/04/28 00:01:04;;;;;;;6.42;5.72;;;;;;;7.98;100.00;101427.88;1778788;80;21148;-77
2022/04/28 00:03:36;;;;;;;9.15;6.08;;;;;;;7.93;100.00;101428.14;1778913;80;21791;-80
2022/04/28 00:06:05;;;;;;;7.67;6.87;;;;;;;7.88;100.00;101434.86;1779134;80;21019;-80
2022/04/28 00:08:33;;;;;;;9.18;6.03;;;;;;;7.83;100.00;101439.42;1778653;80;21121;-77
2022/04/28 00:11:01;;;;;;;6.72;5.58;;;;;;;7.72;100.00;101440.44;1779088;80;21061;-77
2022/04/28 00:13:38;;;;;;;8.73;5.85;;;;;;;7.68;100.00;101441.48;1778892;80;21595;-77
2022/04/28 00:16:00;;;;;;;8.90;5.85;;;;;;;7.63;100.00;101445.60;1776990;80;22087;-83
2022/04/28 00:18:27;;;;;;;7.20;6.50;;;;;;;7.58;100.00;101448.89;1778873;80;21056;-84
2022/04/28 00:20:54;;;;;;;7.17;6.47;;;;;;;7.50;100.00;101453.61;1778578;80;21113;-83
2022/04/28 00:23:22;;;;;;;10.23;7.28;;;;;;;7.32;100.00;101454.05;1778442;80;21014;-79
2022/04/28 00:25:51;;;;;;;9.40;6.78;;;;;;;7.13;100.00;101451.03;1778741;80;21093;-78
2022/04/28 00:28:20;;;;;;;8.05;6.70;;;;;;;6.97;100.00;101444.89;1779423;80;21136;-78
2022/04/28 00:30:48;;;;;;;6.92;5.58;;;;;;;6.85;100.00;101447.13;1778581;80;20963;-78
2022/04/28 00:33:17;;;;;;;6.42;5.75;;;;;;;6.79;100.00;101457.77;1778417;80;21077;-77
2022/04/28 00:35:46;;;;;;;6.62;5.92;;;;;;;6.74;100.00;101455.86;1778675;80;21041;-77
2022/04/28 00:38:14;;;;;;;7.12;6.20;;;;;;;6.70;100.00;101456.89;1778545;80;21081;-77
2022/04/28 00:40:43;;;;;;;8.70;6.58;;;;;;;6.69;100.00;101460.41;1746406;80;21159;-77
2022/04/28 00:43:18;;;;;;;6.92;5.95;;;;;;;6.70;100.00;101464.66;1778457;80;21034;-77
2022/04/28 00:45:50;;;;;;;6.33;5.72;;;;;;;6.72;100.00;101462.41;1778083;80;21018;-83
2022/04/28 00:51:07;;;;;;;8.05;6.22;;;;;;;6.72;100.00;101461.55;1775320;80;21599;-77
2022/04/28 00:53:43;;;;;;;8.70;5.92;;;;;;;6.67;100.00;101465.64;1767508;81;21305;-76
2022/04/28 00:56:11;;;;;;;8.68;6.17;;;;;;;6.60;100.00;101469.41;1767172;81;21031;-77
2022/04/28 00:58:40;;;;;;;7.35;5.78;;;;;;;6.56;100.00;101476.94;1767865;81;21673;-77
2022/04/28 01:01:08;;;;;;;10.72;6.17;;;;;;;6.55;100.00;101472.20;1768187;80;21057;-76
2022/04/28 01:03:40;;;;;;;7.10;5.62;;;;;;;6.56;100.00;101480.83;1767805;81;21343;-78
2022/04/28 01:06:10;;;;;;;8.48;6.30;;;;;;;6.56;100.00;101471.30;1767846;81;21046;-78
2022/04/28 01:08:39;;;;;;;7.75;5.85;;;;;;;6.57;100.00;101464.39;1767501;81;21019;-78
2022/04/28 01:11:08;;;;;;;8.83;6.47;;;;;;;6.58;100.00;101467.34;1768120;81;21069;-79
2022/04/28 01:13:51;;;;;;;10.82;7.03;;;;;;;6.54;100.00;101456.75;1755720;80;21034;-78
2022/04/28 01:16:30;;;;;;;8.88;6.70;;;;;;;6.46;100.00;101451.47;1764417;81;21014;-77
2022/04/28 01:18:59;;;;;;;9.00;7.22;;;;;;;6.35;100.00;101459.32;1768149;81;21110;-77
2022/04/28 01:21:26;;;;;;;8.45;7.17;;;;;;;6.18;100.00;101460.89;1769444;81;21065;-77
2022/04/28 01:23:56;;;;;;;11.10;7.08;;;;;;;6.06;100.00;101466.57;1767984;81;21109;-79
2022/04/28 01:26:27;;;;;;;9.75;7.10;;;;;;;5.99;100.00;101464.72;1744331;81;21531;-77
2022/04/28 01:28:54;;;;;;;7.67;6.45;;;;;;;5.92;100.00;101469.27;1768083;81;21050;-77
2022/04/28 01:31:23;;;;;;;8.20;6.20;;;;;;;5.90;100.00;101463.77;1767234;81;21532;-77
2022/04/28 01:33:52;;;;;;;8.95;6.22;;;;;;;5.89;100.00;101466.80;1767965;80;21165;-78
2022/04/28 01:36:21;;;;;;;9.98;6.58;;;;;;;5.92;100.00;101468.44;1768225;80;21059;-76
2022/04/28 01:38:48;;;;;;;7.97;6.60;;;;;;;5.93;100.00;101464.48;1767982;81;20991;-80
2022/04/28 01:41:17;;;;;;;8.00;6.35;;;;;;;5.93;100.00;101467.08;1768100;81;21061;-77
2022/04/28 01:43:46;;;;;;;7.50;6.30;;;;;;;5.93;100.00;101461.08;1768182;81;21050;-77
2022/04/28 01:46:15;;;;;;;8.00;6.45;;;;;;;5.95;100.00;101469.58;1767657;81;21038;-76
2022/04/28 01:48:50;;;;;;;6.92;6.17;;;;;;;5.97;100.00;101462.61;1768333;81;21022;-77
2022/04/28 01:57:29;;;;;;;6.80;6.00;;;;;;;5.89;100.00;101466.80;1768219;80;20998;-77
2022/04/28 01:59:59;;;;;;;7.87;6.78;;;;;;;5.87;100.00;101466.05;1720274;81;21027;-79
2022/04/28 02:02:45;;;;;;;7.90;6.12;;;;;;;5.87;100.00;101469.92;1767980;80;21483;-82
2022/04/28 02:05:14;;;;;;;7.50;6.53;;;;;;;5.83;100.00;101468.35;1767708;81;21007;-77
2022/04/28 02:07:42;;;;;;;9.18;6.00;;;;;;;5.80;100.00;101462.03;1768175;81;20991;-79
2022/04/28 02:10:12;;;;;;;8.05;6.45;;;;;;;5.80;100.00;101460.74;1767932;80;21190;-77
2022/04/28 02:12:40;;;;;;;7.35;5.75;;;;;;;5.79;100.00;101461.18;1767657;80;21085;-76
2022/04/28 02:15:28;;;;;;;7.87;5.70;;;;;;;5.81;100.00;101467.56;1683948;83;21071;-78
2022/04/28 02:18:16;;;;;;;9.55;6.30;;;;;;;5.82;100.00;101466.66;1725789;82;21016;-76
2022/04/28 02:20:45;;;;;;;8.18;5.85;;;;;;;5.82;100.00;101471.84;1746971;81;21040;-78
2022/04/28 02:23:20;;;;;;;8.30;6.00;;;;;;;5.84;100.00;101475.20;1737314;82;21153;-77
2022/04/28 02:25:43;;;;;;;9.23;6.92;;;;;;;5.84;100.00;101477.36;1766537;81;21023;-77
2022/04/28 02:28:13;;;;;;;7.40;6.33;;;;;;;5.82;100.00;101480.45;1768232;81;21026;-77
2022/04/28 02:30:42;;;;;;;6.92;5.97;;;;;;;5.74;100.00;101476.05;1744154;81;21045;-76
2022/04/28 02:33:11;;;;;;;7.67;6.22;;;;;;;5.65;100.00;101480.30;1767694;81;21050;-77
2022/04/28 02:35:46;;;;;;;12.30;5.75;;;;;;;5.61;100.00;101480.87;1763931;80;21563;-77
2022/04/28 02:38:14;;;;;;;10.10;6.33;;;;;;;5.62;100.00;101482.55;1768174;81;21070;-77
2022/04/28 02:40:41;;;;;;;11.48;6.55;;;;;;;5.64;100.00;101480.75;1767874;80;20987;-76
2022/04/28 02:43:10;;;;;;;8.68;6.55;;;;;;;5.64;100.00;101481.19;1767957;81;21054;-77
2022/04/28 02:45:39;;;;;;;8.83;6.67;;;;;;;5.60;100.00;101488.23;1767681;81;21500;-77
2022/04/28 02:48:10;;;;;;;10.43;6.35;;;;;;;5.55;100.00;101496.62;1767117;81;21151;-77
2022/04/28 02:50:39;;;;;;;11.15;6.35;;;;;;;5.46;100.00;101491.81;1766016;81;21077;-79
2022/04/28 02:53:07;;;;;;;7.10;6.33;;;;;;;5.36;100.00;101494.76;1767536;81;21007;-77
2022/04/28 02:55:36;;;;;;;8.18;6.90;;;;;;;5.22;100.00;101484.13;1768182;81;21034;-82
2022/04/28 02:58:03;;;;;;;7.42;6.58;;;;;;;5.16;100.00;101489.54;1768146;81;21817;-83
2022/04/28 03:00:31;;;;;;;8.43;7.25;;;;;;;5.15;100.00;101494.31;1769742;80;21538;-82
2022/04/28 03:03:00;;;;;;;8.45;6.80;;;;;;;5.15;100.00;101493.84;1763835;81;21093;-78
2022/04/28 03:05:27;;;;;;;7.90;6.72;;;;;;;5.18;100.00;101495.46;1767437;81;21686;-78
2022/04/28 03:10:53;;;;;;;9.05;6.67;;;;;;;5.29;100.00;101501.06;1767741;81;21050;-77
2022/04/28 03:13:23;;;;;;;9.18;6.85;;;;;;;5.30;100.00;101509.21;1768169;81;21109;-77
2022/04/28 03:15:54;;;;;;;8.77;7.50;;;;;;;5.37;100.00;101513.67;1768732;81;21551;-84
2022/04/28 03:18:23;;;;;;;8.05;7.25;;;;;;;5.37;100.00;101513.67;1767747;81;21599;-77
2022/04/28 03:20:50;;;;;;;9.10;7.35;;;;;;;5.41;100.00;101513.12;1767980;81;21031;-77
2022/04/28 03:23:19;;;;;;;10.50;7.15;;;;;;;5.46;100.00;101516.36;1767806;80;21046;-77
2022/04/28 03:25:46;;;;;;;11.05;7.05;;;;;;;5.50;100.00;101516.18;1767628;81;21311;-77
2022/04/28 03:28:15;;;;;;;9.08;7.03;;;;;;;5.55;100.00;101518.59;1767929;81;21556;-77
2022/04/28 03:30:43;;;;;;;8.13;6.95;;;;;;;5.63;100.00;101520.42;1766864;81;21066;-77
2022/04/28 03:33:18;;;;;;;8.63;7.30;;;;;;;5.71;100.00;101516.68;1759404;81;21023;-78
2022/04/28 03:35:45;;;;;;;7.47;6.67;;;;;;;5.81;100.00;101520.55;1765855;80;20998;-78
2022/04/28 03:38:14;;;;;;;9.03;7.37;;;;;;;5.92;100.00;101519.67;1761309;80;21651;-78
2022/04/28 03:40:44;;;;;;;8.80;7.08;;;;;;;6.03;100.00;101516.67;1741319;82;21000;-77
2022/04/28 03:43:17;;;;;;;7.92;6.80;;;;;;;6.18;100.00;101517.79;1740657;81;21062;-78
2022/04/28 03:45:46;;;;;;;8.93;6.72;;;;;;;6.31;100.00;101522.82;1742682;81;21615;-77
2022/04/28 03:48:16;;;;;;;7.95;6.55;;;;;;;6.48;100.00;101519.96;1707281;82;21164;-77
2022/04/28 03:50:45;;;;;;;8.00;7.17;;;;;;;6.65;100.00;101529.56;1744013;82;21212;-77
2022/04/28 03:53:12;;;;;;;7.50;6.58;;;;;;;6.78;100.00;101527.27;1739898;81;21046;-78
2022/04/28 03:55:39;;;;;;;7.28;6.53;;;;;;;6.92;100.00;101527.52;1737361;82;21113;-77
2022/04/28 03:58:07;;;;;;;6.87;6.17;;;;;;;7.08;100.00;101530.70;1737266;82;21109;-78
2022/04/28 04:00:35;;;;;;;8.23;6.40;;;;;;;7.21;100.00;101534.41;1737147;82;21015;-77
2022/04/28 04:03:06;;;;;;;7.40;6.30;;;;;;;7.36;100.00;101525.09;1727760;82;20951;-77
2022/04/28 04:05:36;;;;;;;7.22;5.90;;;;;;;7.53;100.00;101533.81;1714429;81;21138;-78
2022/04/28 04:08:05;;;;;;;8.48;5.60;;;;;;;7.67;100.00;101533.13;1708122;82;21885;-77
2022/04/28 04:10:37;;;;;;;7.20;5.55;;;;;;;7.82;100.00;101538.87;1751474;80;21287;-77
2022/04/28 04:13:09;;;;;;;6.80;5.10;;;;;;;7.99;100.00;101539.36;1736029;81;20995;-78
2022/04/28 04:15:41;;;;;;;5.72;5.22;;;;;;;8.15;100.00;101536.82;1707442;81;21269;-78
2022/04/28 04:18:23;;;;;;;5.37;4.87;;;;;;;8.30;100.00;101535.66;1710940;81;21544;-77
2022/04/28 04:20:53;;;;;;;7.20;5.28;;;;;;;8.48;100.00;101540.42;1703743;84;21393;-78
2022/04/28 04:23:22;;;;;;;6.80;5.80;;;;;;;8.64;100.00;101545.64;1708207;83;21051;-78
2022/04/28 04:25:51;;;;;;;6.28;5.65;;;;;;;8.78;100.00;101541.86;1708392;83;21106;-78
2022/04/28 04:28:20;;;;;;;6.50;5.80;;;;;;;8.93;100.00;101539.39;1707674;83;21168;-77
2022/04/28 04:34:05;;;;;;;6.30;5.70;;;;;;;9.23;100.00;101533.45;1636443;86;21834;-77
2022/04/28 04:36:33;;;;;;;8.70;5.55;;;;;;;9.38;100.00;101539.09;1636853;86;21085;-78
2022/04/28 04:39:01;;;;;;;6.35;5.67;;;;;;;9.51;100.00;101544.45;1666476;84;21022;-77
2022/04/28 04:41:30;;;;;;;5.15;4.65;;;;;;;9.65;100.00;101541.53;1703831;84;21264;-77
2022/04/28 04:43:58;;;;;;;5.58;4.97;;;;;;;9.77;100.00;101543.45;1707739;83;21061;-77
2022/04/28 04:46:25;;;;;;;7.95;5.20;;;;;;;9.90;100.00;101540.96;1707568;83;21086;-77
2022/04/28 04:49:10;;;;;;;6.37;5.17;;;;;;;10.04;100.00;101543.63;1637134;86;21119;-78
2022/04/28 04:51:38;;;;;;;6.30;5.50;;;;;;;10.21;100.00;101545.72;1665997;83;21592;-77
2022/04/28 04:54:11;;;;;;;9.25;5.30;;;;;;;10.32;100.00;101549.80;1724745;82;21130;-77
2022/04/28 04:56:39;;;;;;;6.62;5.00;;;;;;;10.45;100.00;101551.25;1732496;82;21049;-77
2022/04/28 04:59:07;;;;;;;9.30;5.45;;;;;;;10.58;100.00;101557.87;1732175;82;21053;-78
2022/04/28 05:01:36;;;;;;;8.08;6.20;;;;;;;10.71;100.00;101556.19;1732367;82;21128;-83
2022/04/28 05:04:23;;;;;;;7.83;5.58;;;;;;;10.84;100.00;101554.15;1732652;82;21065;-78
2022/04/28 05:06:53;;;;;;;6.97;6.08;;;;;;;10.96;100.00;101552.56;1728172;82;21573;-78
2022/04/28 05:09:24;;;;;;;5.80;5.10;;;;;;;11.09;100.00;101558.67;1732210;82;21499;-77
2022/04/28 05:11:53;;;;;;;5.87;5.10;;;;;;;11.21;100.00;101562.28;1702086;82;22290;-77
2022/04/28 05:14:28;;;;;;;7.78;5.40;;;;;;;11.31;100.00;101556.87;1728073;82;21324;-77
2022/04/28 05:16:58;;;;;;;6.15;5.55;;;;;;;11.43;100.00;101555.25;1732791;82;21073;-79
2022/04/28 05:19:31;;;;;;;6.30;5.70;;;;;;;11.56;100.00;101555.30;1698999;82;21223;-78
2022/04/28 05:22:01;;;;;;;9.43;5.72;;;;;;;11.68;100.00;101552.37;1732442;82;21033;-77
2022/04/28 05:24:33;;;;;;;8.03;6.30;;;;;;;11.83;100.00;101557.89;1698636;82;21014;-78
2022/04/28 05:27:18;;;;;;;7.17;5.28;;;;;;;11.96;100.00;101554.01;1732205;82;21069;-78
2022/04/28 05:29:53;;;;;;;5.92;5.33;;;;;;;12.11;100.00;101561.78;1732671;82;21559;-78
2022/04/28 05:32:22;;;;;;;6.42;5.53;;;;;;;12.23;100.00;101561.43;1727567;82;21266;-78
2022/04/28 05:34:54;;;;;;;6.08;5.22;;;;;;;12.36;100.00;101564.05;1728089;82;21072;-77
2022/04/28 05:37:24;;;;;;;7.05;5.87;;;;;;;12.47;100.00;101566.75;1732122;82;21128;-78
2022/04/28 05:39:52;;;;;;;6.00;5.40;;;;;;;12.57;100.00;101569.12;1732291;82;21669;-77
2022/04/28 05:42:19;;;;;;;6.87;5.87;;;;;;;12.68;100.00;101570.98;1732442;82;21089;-79
2022/04/28 05:47:36;;;;;;;7.17;5.50;;;;;;;12.90;100.00;101561.19;1706676;82;20962;-81
2022/04/28 05:50:04;;;;;;;7.90;5.62;;;;;;;13.03;100.00;101565.09;1732849;82;21018;-79
2022/04/28 05:52:31;;;;;;;10.90;5.53;;;;;;;13.15;100.00;101569.92;1732016;82;21132;-80
2022/04/28 05:54:59;;;;;;;7.50;5.22;;;;;;;13.26;100.00;101568.67;1723918;83;21061;-78
2022/04/28 05:57:27;;;;;;;5.85;5.05;;;;;;;13.37;100.00;101563.15;1692044;83;21014;-79
2022/04/28 05:59:55;;;;;;;7.72;5.17;;;;;;;13.48;100.00;101562.41;1724702;83;21053;-82
2022/04/28 06:02:41;;;;;;;5.67;4.62;;;;;;;13.60;100.00;101564.14;1724974;83;21140;-79
2022/04/28 06:05:10;;;;;;;5.50;4.58;;;;;;;13.76;100.00;101559.91;1721783;81;21042;-79
2022/04/28 06:07:51;;;;;;;6.47;4.58;;;;;;;13.88;100.00;101559.02;1740466;81;21041;-78
2022/04/28 06:10:20;;;;;;;4.80;4.30;;;;;;;14.00;100.00;101559.89;1755207;81;21391;-78
2022/04/28 06:13:00;;;;;;;6.87;4.00;;;;;;;14.15;100.00;101559.19;1748940;81;21060;-79
2022/04/28 06:15:48;;;;;;;5.22;4.42;;;;;;;14.28;100.00;101560.91;1733697;81;21041;-79
2022/04/28 06:18:27;;;;;;;5.12;4.28;;;;;;;14.43;100.00;101557.56;1811833;77;21036;-77
2022/04/28 06:21:05;;;;;;;4.50;3.50;;;;;;;14.56;100.00;101565.33;1797672;78;21061;-81
2022/04/28 06:23:45;;;;;;;3.42;3.12;;;;;;;14.67;100.00;101570.62;1736428;80;21046;-78
2022/04/28 06:26:13;;;;;;;3.30;3.00;;;;;;;14.80;100.00;101570.50;1709438;81;21729;-78
2022/04/28 06:28:43;;;;;;;3.45;2.65;;;;;;;14.93;100.00;101568.58;1791833;78;21139;-78
2022/04/28 06:31:10;;;;;;;2.77;2.40;;;;;;;15.04;100.00;101572.15;1802003;79;21041;-78
2022/04/28 06:33:41;;;;;;;3.00;2.40;;;;;;;15.15;94.15;101573.42;1786054;78;21590;-77
2022/04/28 06:36:11;;;;;;;3.40;2.50;;;;;;;15.23;90.07;101574.14;1789509;79;21810;-77
2022/04/28 06:38:39;;;;;;;2.52;2.10;;;;;;;15.31;81.17;101574.36;1805041;79;21041;-79
2022/04/28 06:41:10;;;;;;;2.17;1.98;;;;;;;15.43;77.33;101575.16;1783767;78;21140;-77
2022/04/28 06:43:40;;;;;;;3.03;2.07;;;;;;;15.51;70.48;101571.91;1794522;79;21476;-78
2022/04/28 06:46:26;;;;;;;2.35;1.98;;;;;;;15.59;70.66;101567.72;1757796;80;21070;-77
2022/04/28 06:48:58;;;;;;;2.70;2.20;;;;;;;15.72;68.43;101566.70;1766064;79;21272;-76
2022/04/28 06:51:28;;;;;;;2.67;2.08;;;;;;;15.85;67.54;101561.30;1781461;79;21461;-78
2022/04/28 06:54:00;;;;;;;3.35;2.30;;;;;;;15.96;62.42;101560.41;1807480;78;21527;-77
2022/04/28 06:56:31;;;;;;;4.25;2.02;;;;;;;16.02;60.00;101566.00;1791941;78;21022;-77
2022/04/28 06:59:10;;;;;;;4.95;2.02;;;;;;;16.08;64.20;101562.03;1792004;78;21108;-77
2022/04/28 07:01:40;;;;;;;2.30;2.10;;;;;;;16.20;66.40;101564.93;1792269;78;21254;-83
2022/04/28 07:04:09;;;;;;;2.20;2.00;;;;;;;16.30;60.06;101563.69;1772271;79;21014;-77
2022/04/28 07:06:36;;;;;;;3.10;1.98;;;;;;;16.42;60.37;101564.91;1753760;80;21045;-78
2022/04/28 07:09:05;;;;;;;2.67;2.20;;;;;;;16.53;58.58;101564.84;1771966;80;21046;-77
2022/04/28 07:11:35;;;;;;;2.85;2.08;;;;;;;16.60;57.41;101562.50;1771920;80;21491;-77
2022/04/28 07:14:06;;;;;;;2.50;1.80;;;;;;;16.64;57.34;101555.53;1737309;82;21527;-77
2022/04/28 07:16:54;;;;;;;2.95;1.82;;;;;;;16.69;55.29;101561.70;1710371;82;20934;-79
2022/04/28 07:19:23;;;;;;;3.05;1.95;;;;;;;16.74;52.95;101563.48;1737218;82;20998;-76
2022/04/28 07:21:53;;;;;;;5.87;1.95;;;;;;;16.78;53.77;101565.36;1736431;82;20996;-78
2022/04/28 07:24:22;;;;;;;5.05;2.00;;;;;;;16.82;51.76;101567.59;1737381;82;21101;-78
2022/04/28 07:26:50;;;;;;;2.33;1.80;;;;;;;16.90;50.43;101566.09;1737231;82;21433;-80
2022/04/28 07:29:18;;;;;;;2.37;1.47;;;;;;;16.96;50.47;101564.27;1713012;82;21034;-85
2022/04/28 07:32:07;;;;;;;2.20;1.40;;;;;;;17.02;48.92;101569.80;1737523;82;21045;-79
2022/04/28 07:34:54;;;;;;;3.30;2.08;;;;;;;17.07;49.19;101565.45;1757176;80;21030;-85
2022/04/28 07:37:40;;;;;;;1.77;1.67;;;;;;;17.15;50.90;101563.47;1767946;80;20940;-79
2022/04/28 07:40:13;;;;;;;2.37;1.70;;;;;;;17.24;47.57;101561.81;1726587;81;21156;-79
2022/04/28 07:42:43;;;;;;;1.42;1.30;;;;;;;17.24;45.83;101569.25;1715336;82;21164;-79
2022/04/28 07:45:12;;;;;;;1.35;1.25;;;;;;;17.18;49.31;101565.34;1724443;82;21096;-79
2022/04/28 07:47:41;;;;;;;1.55;1.45;;;;;;;17.24;51.29;101565.30;1713204;82;21037;-79
2022/04/28 07:50:10;;;;;;;2.60;1.50;;;;;;;17.32;50.75;101563.28;1734413;81;21026;-79
2022/04/28 07:52:39;;;;;;;1.52;1.40;;;;;;;17.42;49.72;101565.95;1736433;82;21130;-80
2022/04/28 07:55:10;;;;;;;1.82;1.50;;;;;;;17.45;52.30;101558.61;1709955;82;21452;-79
2022/04/28 07:57:38;;;;;;;1.75;1.65;;;;;;;17.46;49.80;101562.06;1783142;78;21641;-79
2022/04/28 08:00:13;;;;;;;2.80;1.35;;;;;;;17.50;50.05;101567.41;1782273;79;21026;-86
2022/04/28 08:02:43;;;;;;;2.15;1.30;;;;;;;17.59;48.39;101563.92;1747928;82;21097;-79
2022/04/28 08:05:12;;;;;;;3.90;1.37;;;;;;;17.70;44.39;101564.77;1757251;80;21253;-81
2022/04/28 08:07:41;;;;;;;2.80;1.20;;;;;;;17.77;45.19;101565.40;1751038;80;21048;-80
2022/04/28 08:10:10;;;;;;;2.15;1.15;;;;;;;17.84;42.84;101545.89;1747749;82;21051;-79
2022/04/28 08:12:38;;;;;;;1.85;1.42;;;;;;;17.90;43.26;101541.41;1734104;82;21519;-80
2022/04/28 08:15:08;;;;;;;1.50;1.40;;;;;;;17.96;41.56;101545.28;1811087;79;21038;-78
2022/04/28 08:17:37;;;;;;;3.37;1.45;;;;;;;17.99;42.89;101545.02;1814252;78;21019;-81
2022/04/28 08:20:05;;;;;;;2.67;1.30;;;;;;;18.02;43.97;101547.84;1814993;78;20979;-79
2022/04/28 08:22:34;;;;;;;2.52;1.10;;;;;;;18.01;42.43;101549.66;1814526;78;21045;-78
2022/04/28 08:25:06;;;;;;;3.77;1.30;;;;;;;18.00;40.75;101548.47;1776180;80;21049;-77
2022/04/28 08:27:43;;;;;;;2.25;1.20;;;;;;;17.98;41.99;101552.57;1745168;80;21569;-78
2022/04/28 08:30:11;;;;;;;1.77;1.32;;;;;;;18.01;39.97;101547.50;1753075;80;21546;-78
2022/04/28 08:32:38;;;;;;;1.37;1.27;;;;;;;18.10;40.42;101548.81;1756368;80;21125;-84
2022/04/28 08:35:07;;;;;;;3.05;1.30;;;;;;;18.21;39.87;101551.77;1745611;80;21029;-83
2022/04/28 08:37:39;;;;;;;1.32;1.07;;;;;;;18.27;41.41;101543.75;1786555;78;38012;-80
2022/04/28 08:40:08;;;;;;;1.50;1.30;;;;;;;18.41;42.35;101547.73;1786790;79;21085;-79
2022/04/28 08:42:38;;;;;;;1.75;1.20;;;;;;;18.55;41.15;101538.53;1807952;79;21022;-78
2022/04/28 08:45:28;;;;;;;1.27;1.17;;;;;;;18.57;41.21;101543.18;1780541;79;21038;-78
2022/04/28 08:48:11;;;;;;;1.20;0.98;;;;;;;18.60;40.81;101548.99;1730720;78;21325;-80
2022/04/28 08:50:53;;;;;;;2.00;1.35;;;;;;;18.62;38.83;101534.84;1809054;79;21014;-82
2022/04/28 08:53:24;;;;;;;1.72;1.07;;;;;;;18.49;38.59;101537.30;1806874;78;21010;-77
2022/04/28 08:55:57;;;;;;;1.30;1.12;;;;;;;18.42;39.60;101530.95;1802982;78;21049;-78
2022/04/28 08:58:22;;;;;;;2.35;1.10;;;;;;;18.48;41.32;101534.81;1797970;79;21324;-79
2022/04/28 09:00:52;;;;;;;1.32;1.20;;;;;;;18.58;39.85;101537.75;1799181;78;21101;-77
2022/04/28 09:03:26;;;;;;;1.30;1.20;;;;;;;18.74;39.18;101534.50;1801458;78;21029;-78
2022/04/28 09:06:30;;;;;;;1.52;1.42;;;;;;;18.91;40.08;101534.18;1771084;80;21070;-81
2022/04/28 09:09:17;;;;;;;1.40;1.30;;;;;;;19.16;40.56;101529.67;1771829;80;21201;-80
2022/04/28 09:12:06;;;;;;;1.65;1.50;;;;;;;19.35;37.95;101528.22;1779868;79;21011;-77
2022/04/28 09:14:46;;;;;;;1.40;1.30;;;;;;;19.48;38.99;101528.31;1750060;81;21007;-78
2022/04/28 09:17:16;;;;;;;2.47;1.20;;;;;;;19.58;37.18;101525.11;1761727;79;21098;-78
2022/04/28 09:19:46;;;;;;;3.55;1.32;;;;;;;19.62;39.55;101521.19;1725266;81;20964;-77
2022/04/28 09:22:23;;;;;;;1.42;1.32;;;;;;;19.75;37.84;101518.63;1734627;81;21305;-78
2022/04/28 09:24:56;;;;;;;1.05;0.95;;;;;;;19.82;36.93;101519.20;1740677;82;21109;-78
2022/04/28 09:27:25;;;;;;;1.20;1.02;;;;;;;19.79;39.37;101525.28;1730255;81;21056;-79
2022/04/28 09:29:55;;;;;;;2.03;1.13;;;;;;;19.71;37.41;101524.72;1737338;81;21129;-78
2022/04/28 09:32:26;;;;;;;1.30;1.20;;;;;;;19.68;38.04;101527.66;1741012;81;21725;-79
2022/04/28 09:35:09;;;;;;;3.45;1.10;;;;;;;19.61;40.49;101525.29;1736350;82;21937;-82
2022/04/28 09:37:38;;;;;;;1.40;1.17;;;;;;;19.54;42.19;101526.41;1738788;81;21493;-80
2022/04/28 09:42:57;;;;;;;8.98;5.55;;;;;;;19.72;37.29;101515.81;1743617;82;21789;-80
2022/04/28 09:45:33;;;;;;;2.20;1.72;;;;;;;19.88;38.44;101512.98;1743938;81;21523;-79
2022/04/28 09:48:05;;;;;;;1.98;1.12;;;;;;;20.04;39.06;101509.12;1729770;82;21010;-79
2022/04/28 09:50:40;;;;;;;1.60;1.50;;;;;;;20.05;38.19;101516.06;1732709;81;20963;-79
2022/04/28 09:53:14;;;;;;;0.90;0.90;;;;;;;19.95;36.79;101507.41;1743806;80;21053;-78
2022/04/28 09:55:51;;;;;;;1.20;1.10;;;;;;;19.97;37.04;101516.02;1743926;81;21002;-79
2022/04/28 09:58:31;;;;;;;2.02;1.15;;;;;;;20.11;35.21;101511.47;1746151;82;21061;-78
2022/04/28 10:01:03;;;;;;;1.25;1.07;;;;;;;20.16;33.95;101511.00;1748564;82;21507;-78
2022/04/28 10:03:33;;;;;;;1.92;1.02;;;;;;;20.21;33.25;101506.56;1744919;80;21030;-78
2022/04/28 10:06:05;;;;;;;1.12;1.10;;;;;;;20.26;34.08;101510.88;1720217;82;21038;-79
2022/04/28 10:09:00;;;;;;;2.45;1.17;;;;;;;20.30;33.92;101513.05;1720101;82;21081;-79
2022/04/28 10:11:33;;;;;;;1.17;1.10;;;;;;;20.31;33.15;101517.87;1702838;82;21116;-78
2022/04/28 10:14:02;;;;;;;1.10;1.00;;;;;;;20.28;34.28;101514.20;1743963;82;22068;-79
2022/04/28 10:16:32;;;;;;;9.60;7.85;;;;;;;20.39;34.50;101513.91;1746522;82;21069;-78
2022/04/28 10:19:22;;;;;;;2.55;1.80;;;;;;;20.56;34.93;101517.95;1746639;81;21010;-78
2022/04/28 10:22:03;;;;;;;2.52;2.05;;;;;;;20.75;36.10;101510.30;1708389;82;21521;-79
2022/04/28 10:33:21;;;;;;;1.37;1.27;;;;;;;20.92;33.84;101516.45;1686812;83;21170;-78
2022/04/28 10:35:54;;;;;;;1.80;1.40;;;;;;;20.83;32.82;101500.21;1703835;82;21066;-79
2022/04/28 10:38:31;;;;;;;2.83;1.22;;;;;;;20.82;34.41;101509.98;1744242;82;20967;-78
2022/04/28 10:41:10;;;;;;;1.37;1.07;;;;;;;20.87;35.64;101506.86;1744237;82;21781;-78
2022/04/28 10:43:43;;;;;;;1.85;1.45;;;;;;;20.97;33.52;101507.52;1715546;82;21507;-78
2022/04/28 10:46:22;;;;;;;2.22;1.10;;;;;;;21.03;33.09;101508.70;1745610;82;21116;-78
2022/04/28 10:48:48;;;;;;;1.55;1.02;;;;;;;21.03;35.49;101508.19;1743952;82;21598;-77
2022/04/28 10:51:18;;;;;;;1.20;1.10;;;;;;;20.96;32.62;101512.00;1748397;82;21621;-83
2022/04/28 10:54:03;;;;;;;1.75;1.40;;;;;;;20.96;35.09;101515.13;1744730;81;21538;-79
2022/04/28 10:56:52;;;;;;;2.22;1.00;;;;;;;20.97;31.96;101514.14;1756281;81;21014;-78
2022/04/28 10:59:34;;;;;;;1.25;1.12;;;;;;;20.91;31.75;101506.85;1746322;81;21014;-78
2022/04/28 11:02:16;;;;;;;1.77;1.20;;;;;;;20.88;31.06;101513.78;1815584;77;21025;-78
2022/04/28 11:04:55;;;;;;;7.87;1.50;;;;;;;20.83;31.05;101512.13;1799130;77;20971;-79
2022/04/28 11:07:28;;;;;;;2.50;1.42;;;;;;;20.82;32.15;101513.95;1801916;79;21365;-78
2022/04/28 11:10:05;;;;;;;2.37;1.20;;;;;;;20.89;34.45;101500.88;1794276;79;21021;-78
2022/04/28 11:12:37;;;;;;;3.85;1.15;;;;;;;21.09;34.63;101504.06;1763043;80;21063;-78
2022/04/28 11:15:09;;;;;;;2.92;1.30;;;;;;;21.30;34.83;101504.92;1773437;79;21097;-81
2022/04/28 11:17:47;;;;;;;4.00;1.57;;;;;;;21.53;35.83;101506.90;1769781;79;21342;-79
2022/04/28 11:20:15;;;;;;;1.75;1.10;;;;;;;21.73;32.50;101501.63;1772442;79;21146;-78
2022/04/28 11:22:54;;;;;;;1.32;1.20;;;;;;;21.83;33.36;101507.26;1732672;80;21161;-78
2022/04/28 11:25:23;;;;;;;2.55;1.30;;;;;;;21.94;33.74;101502.91;1742640;82;21065;-78
2022/04/28 11:27:53;;;;;;;0.95;0.90;;;;;;;22.02;33.40;101502.89;1774064;80;21093;-79
2022/04/28 11:30:26;;;;;;;2.47;1.50;;;;;;;22.03;32.36;101501.90;1744090;81;21566;-80
2022/04/28 11:32:59;;;;;;;1.75;0.98;;;;;;;21.81;31.79;101495.98;1766295;80;21019;-82
2022/04/28 11:35:37;;;;;;;1.95;1.32;;;;;;;21.59;32.91;101496.51;1774070;79;21022;-79
2022/04/28 11:38:06;;;;;;;1.95;1.40;;;;;;;21.67;32.62;101493.52;1785307;79;21511;-78
2022/04/28 11:40:38;;;;;;;2.47;1.25;;;;;;;21.65;31.84;101491.04;1798679;77;21509;-78
2022/04/28 11:43:06;;;;;;;1.67;1.27;;;;;;;21.57;34.46;101491.02;1703787;82;21089;-78
2022/04/28 11:45:36;;;;;;;1.32;1.22;;;;;;;21.56;33.55;101484.06;1789837;80;21601;-78
2022/04/28 11:48:05;;;;;;;1.40;1.30;;;;;;;21.58;33.72;101487.41;1784778;79;20983;-78
2022/04/28 11:50:37;;;;;;;1.72;1.40;;;;;;;21.68;32.99;101484.06;1802967;78;21084;-78
2022/04/28 11:53:11;;;;;;;1.60;1.10;;;;;;;21.79;34.14;101482.06;1763163;80;21026;-79
2022/04/28 11:55:40;;;;;;;1.40;1.20;;;;;;;21.88;34.28;101476.57;1773681;79;21037;-85
2022/04/28 11:58:12;;;;;;;1.35;1.22;;;;;;;21.70;35.72;101482.08;1750382;81;21504;-79
2022/04/28 12:00:45;;;;;;;1.42;1.07;;;;;;;21.34;37.21;101478.45;1803646;78;20983;-77
2022/04/28 12:03:25;;;;;;;1.62;1.30;;;;;;;21.12;35.40;101468.81;1806399;79;21033;-77
2022/04/28 12:05:56;;;;;;;1.12;1.02;;;;;;;20.99;33.77;101461.86;1806062;78;21554;-78
2022/04/28 12:08:25;;;;;;;1.50;1.20;;;;;;;20.92;33.49;101468.30;1793724;77;21013;-78
2022/04/28 12:14:22;;;;;;;0.93;0.93;;;;;;;20.79;35.79;101464.80;1811898;78;21606;-80
2022/04/28 12:19:20;;;;;;;4.03;1.10;;;;;;;20.84;34.15;101458.20;1761206;80;21006;-78
2022/04/28 12:21:49;;;;;;;1.10;1.10;;;;;;;20.91;33.13;101461.85;1771647;79;21494;-79